メインページ
METAR-TAF:

METAR-TAF

空港 :

Casino, オーストラリア

緯度: 28-52-39S, 経度: 153-03-07E, 海抜: 21m

現時点の気象観測

当レポートは1時間4分前の12:00(UTC)に作成
北/北東の風 6kt
気温 22°C
湿度 78%
気圧 1013 hPa

METAR: YCAS 231200Z AUTO 02006KT //// // ////// 22/18 Q1013

時間: 00:04 (13:04 UTC)


TAF: 見つかりません

4,000以上の空港の気象観測と天気予報(METAR報とTAF報)

利用可能な観測所は地図上に黄色い丸と赤い丸で示す。

丸の上にカーソルを重ねると観測所名を参照できる。

次にクリックすると気象観測と天気予報を参照できる。

マップの切り替え:黒色「×」印の緑ボタンをクリックして拡大、「-」印の緑ボタンをクリックして縮小、緑色の三角印をクリックして隣りの地図に切り替え


METAR-TAF: